Time;durP1;ratioP1;P1;durP2;ratioP2;P2;SDS_P1;SDS_P2;PMS_P1;PMS_P2;Temp;Humidity;BMP_temperature;BMP_pressure;BME280_temperature;BME280_humidity;BME280_pressure;Samples;Min_cycle;Max_cycle;Signal;HPM_P1;HPM_P2
2023/01/06 00:00:35;;;;;;;21.73;7.82;;;7.40;99.90;;;;;;5089929;28;20032;-73
2023/01/06 00:03:00;;;;;;;21.10;8.30;;;7.40;99.90;;;;;;5087849;28;20023;-74
2023/01/06 00:05:28;;;;;;;16.17;7.78;;;7.40;99.90;;;;;;5102984;28;20552;-74
2023/01/06 00:07:53;;;;;;;21.77;8.27;;;7.40;99.90;;;;;;5082590;28;20080;-73
2023/01/06 00:10:20;;;;;;;19.25;7.88;;;7.40;99.90;;;;;;5097545;28;20040;-73
2023/01/06 00:12:48;;;;;;;19.25;8.95;;;7.50;99.90;;;;;;5065975;28;20434;-73
2023/01/06 00:15:15;;;;;;;20.92;8.18;;;7.40;99.90;;;;;;5079002;28;20024;-73
2023/01/06 00:17:41;;;;;;;21.48;9.40;;;7.40;99.90;;;;;;5081754;28;20045;-74
2023/01/06 00:20:10;;;;;;;16.65;8.30;;;7.40;99.90;;;;;;5064393;28;20714;-73
2023/01/06 00:22:35;;;;;;;19.85;8.27;;;7.40;99.90;;;;;;5080847;28;20206;-74
2023/01/06 00:25:04;;;;;;;19.85;9.07;;;7.40;99.90;;;;;;5092637;28;20027;-75
2023/01/06 00:27:31;;;;;;;24.38;8.70;;;7.40;99.90;;;;;;5073822;28;20020;-74
2023/01/06 00:29:56;;;;;;;19.13;8.23;;;7.40;99.90;;;;;;5105873;28;20165;-74
2023/01/06 00:32:22;;;;;;;19.50;8.70;;;7.40;99.90;;;;;;5089614;28;20150;-74
2023/01/06 00:34:48;;;;;;;23.23;8.45;;;7.40;99.90;;;;;;5106951;28;20039;-74
2023/01/06 00:37:13;;;;;;;21.50;8.45;;;7.40;99.90;;;;;;5086584;28;20158;-74
2023/01/06 00:39:39;;;;;;;20.52;9.07;;;7.40;99.90;;;;;;5088792;28;20019;-74
2023/01/06 00:42:05;;;;;;;22.73;8.27;;;7.40;99.90;;;;;;5089385;28;20023;-74
2023/01/06 00:44:34;;;;;;;18.63;8.68;;;7.40;99.90;;;;;;5088761;28;20419;-74
2023/01/06 00:47:00;;;;;;;24.38;9.43;;;7.50;99.90;;;;;;5085721;28;20031;-74
2023/01/06 00:49:26;;;;;;;20.40;8.85;;;7.40;99.90;;;;;;5088624;28;20035;-75
2023/01/06 00:51:52;;;;;;;16.38;8.40;;;7.40;99.90;;;;;;5072930;28;20032;-74
2023/01/06 00:54:19;;;;;;;25.17;10.45;;;7.40;99.90;;;;;;5124361;28;20105;-74
2023/01/06 00:56:48;;;;;;;23.63;8.85;;;7.40;99.90;;;;;;5087253;28;20038;-73
2023/01/06 00:59:18;;;;;;;19.42;9.15;;;7.40;99.90;;;;;;5090481;28;20043;-74
2023/01/06 01:01:45;;;;;;;21.35;9.40;;;7.40;99.90;;;;;;5085467;28;20028;-74
2023/01/06 01:04:12;;;;;;;23.50;9.68;;;7.40;99.90;;;;;;5070529;28;20041;-74
2023/01/06 01:06:40;;;;;;;17.23;8.85;;;7.40;99.90;;;;;;5086985;28;20038;-73
2023/01/06 01:09:06;;;;;;;20.00;9.45;;;7.40;99.90;;;;;;5087123;28;20399;-74
2023/01/06 01:14:19;;;;;;;24.38;9.95;;;7.40;99.90;;;;;;5105843;28;20288;-74
2023/01/06 01:16:45;;;;;;;23.70;10.57;;;7.40;99.90;;;;;;5088310;28;20399;-74
2023/01/06 01:19:12;;;;;;;21.10;10.82;;;7.40;99.90;;;;;;5087927;28;20119;-74
2023/01/06 01:21:38;;;;;;;22.27;10.38;;;7.40;99.90;;;;;;5087190;28;20032;-74
2023/01/06 01:24:04;;;;;;;22.45;10.38;;;7.40;99.90;;;;;;5088033;28;20056;-74
2023/01/06 01:26:30;;;;;;;21.70;9.52;;;7.30;99.90;;;;;;5085816;28;20031;-74
2023/01/06 01:28:56;;;;;;;17.95;9.30;;;7.30;99.90;;;;;;5087658;28;20113;-74
2023/01/06 01:31:21;;;;;;;22.67;9.40;;;7.30;99.90;;;;;;5104102;28;20039;-74
2023/01/06 01:33:48;;;;;;;22.13;9.90;;;7.30;99.90;;;;;;5086439;28;20020;-74
2023/01/06 01:36:15;;;;;;;18.10;9.27;;;7.30;99.90;;;;;;5088246;28;20031;-74
2023/01/06 01:38:41;;;;;;;16.73;8.93;;;7.30;99.90;;;;;;5104918;28;20521;-73
2023/01/06 01:41:12;;;;;;;17.77;9.07;;;7.20;99.90;;;;;;5105107;28;20028;-74
2023/01/06 01:43:44;;;;;;;19.75;9.32;;;7.20;99.90;;;;;;5087170;28;20116;-73
2023/01/06 01:46:11;;;;;;;23.25;10.55;;;7.30;99.90;;;;;;5085068;28;20403;-74
2023/01/06 01:48:38;;;;;;;19.52;9.80;;;7.20;99.90;;;;;;5107230;28;20028;-74
2023/01/06 01:51:08;;;;;;;26.52;10.75;;;7.30;99.90;;;;;;5105462;28;20747;-74
2023/01/06 01:53:39;;;;;;;20.52;10.07;;;7.20;99.90;;;;;;5072341;28;20391;-74
2023/01/06 01:56:09;;;;;;;19.48;10.38;;;7.30;99.90;;;;;;5105143;28;20027;-74
2023/01/06 01:58:43;;;;;;;20.05;9.77;;;7.30;99.90;;;;;;5110947;28;20028;-74
2023/01/06 02:01:10;;;;;;;20.35;10.63;;;7.30;99.90;;;;;;5088233;28;20031;-73
2023/01/06 02:03:38;;;;;;;18.95;10.10;;;7.30;99.90;;;;;;5089685;28;20036;-73
2023/01/06 02:06:11;;;;;;;24.40;9.77;;;7.30;99.90;;;;;;5108673;28;20034;-73
2023/01/06 02:09:15;;;;;;;23.38;10.40;;;7.30;99.90;;;;;;5094086;28;20023;-74
2023/01/06 02:11:42;;;;;;;20.35;9.98;;;7.30;99.90;;;;;;5065912;28;20080;-73
2023/01/06 02:14:17;;;;;;;23.48;11.10;;;7.30;99.90;;;;;;5089579;28;20034;-74
2023/01/06 02:17:15;;;;;;;19.35;10.27;;;7.30;99.90;;;;;;5090931;28;20076;-73
2023/01/06 02:19:47;;;;;;;24.23;11.13;;;7.30;99.90;;;;;;5106930;28;20550;-74
2023/01/06 02:22:58;;;;;;;22.20;11.68;;;7.30;99.90;;;;;;5107272;28;20111;-73
2023/01/06 02:25:45;;;;;;;20.45;10.30;;;7.30;99.90;;;;;;5109031;28;20028;-73
2023/01/06 02:28:48;;;;;;;23.35;11.52;;;7.30;99.90;;;;;;5093477;28;20038;-73
2023/01/06 02:31:17;;;;;;;17.48;10.38;;;7.30;99.90;;;;;;5108011;28;20027;-73
2023/01/06 02:34:01;;;;;;;23.00;10.57;;;7.30;99.90;;;;;;5088202;28;20034;-73
2023/01/06 02:36:49;;;;;;;22.58;10.77;;;7.30;99.90;;;;;;5111606;28;20032;-74
2023/01/06 02:39:36;;;;;;;17.48;9.45;;;7.40;99.90;;;;;;5054073;28;20094;-73
2023/01/06 02:42:20;;;;;;;18.08;9.27;;;7.40;99.90;;;;;;5091716;28;20035;-73
2023/01/06 02:45:04;;;;;;;18.45;9.52;;;7.40;99.90;;;;;;5109169;28;20030;-73
2023/01/06 02:47:56;;;;;;;15.20;9.93;;;7.40;99.90;;;;;;5085948;28;20248;-73
2023/01/06 02:50:33;;;;;;;16.85;9.18;;;7.40;99.90;;;;;;5040562;28;20043;-73
2023/01/06 02:53:10;;;;;;;16.92;9.52;;;7.40;99.90;;;;;;5095372;28;20486;-72
2023/01/06 02:55:44;;;;;;;14.07;8.18;;;7.40;99.90;;;;;;5091412;28;20074;-72
2023/01/06 02:58:16;;;;;;;18.35;10.10;;;7.40;99.90;;;;;;5091588;28;20235;-73
2023/01/06 03:00:56;;;;;;;22.45;11.98;;;7.40;99.90;;;;;;5108439;28;20020;-72
2023/01/06 03:03:27;;;;;;;25.08;11.15;;;7.40;99.90;;;;;;5106005;28;20106;-73
2023/01/06 03:05:58;;;;;;;22.88;11.63;;;7.40;99.90;;;;;;5090283;28;20027;-72
2023/01/06 03:08:27;;;;;;;24.25;12.52;;;7.50;99.90;;;;;;5074106;28;20042;-73
2023/01/06 03:10:55;;;;;;;23.40;12.02;;;7.50;99.90;;;;;;5084447;28;20032;-73
2023/01/06 03:13:23;;;;;;;23.05;11.98;;;7.50;99.90;;;;;;5109949;27;20025;-73
2023/01/06 03:15:49;;;;;;;22.52;11.35;;;7.50;99.90;;;;;;5072764;28;20024;-73
2023/01/06 03:18:15;;;;;;;19.77;10.63;;;7.50;99.90;;;;;;5087373;28;20080;-73
2023/01/06 03:20:41;;;;;;;22.83;12.95;;;7.60;99.90;;;;;;5071789;28;20401;-73
2023/01/06 03:23:07;;;;;;;21.10;11.85;;;7.50;99.90;;;;;;5091367;28;20049;-73
2023/01/06 03:25:33;;;;;;;21.40;10.40;;;7.60;99.90;;;;;;5087752;28;20123;-73
2023/01/06 03:27:59;;;;;;;23.40;12.18;;;7.60;99.90;;;;;;5089195;28;20051;-73
2023/01/06 03:31:00;;;;;;;22.33;12.13;;;7.60;99.90;;;;;;5088042;28;20024;-73
2023/01/06 03:33:52;;;;;;;25.83;11.98;;;7.60;99.90;;;;;;5089904;28;20103;-73
2023/01/06 03:36:32;;;;;;;21.92;11.77;;;7.60;99.90;;;;;;5107865;28;20522;-73
2023/01/06 03:39:13;;;;;;;28.63;12.93;;;7.70;99.90;;;;;;5075668;28;20685;-73
2023/01/06 03:44:54;;;;;;;30.00;14.23;;;7.70;99.90;;;;;;5107023;28;20091;-73
2023/01/06 03:47:36;;;;;;;29.60;13.73;;;7.70;99.90;;;;;;5106369;28;20031;-73
2023/01/06 03:50:11;;;;;;;24.42;13.15;;;7.70;99.90;;;;;;5107762;28;20439;-73
2023/01/06 03:52:43;;;;;;;37.92;15.65;;;7.80;99.90;;;;;;5089550;28;20031;-73
2023/01/06 03:55:17;;;;;;;27.48;13.95;;;7.80;99.90;;;;;;5089940;28;20051;-73
2023/01/06 03:57:47;;;;;;;27.63;14.20;;;7.80;99.90;;;;;;5071296;28;20656;-73
2023/01/06 04:00:37;;;;;;;29.90;13.37;;;7.80;99.90;;;;;;5087002;28;20027;-73
2023/01/06 04:03:07;;;;;;;40.72;16.88;;;7.90;99.90;;;;;;5106778;27;20064;-73
2023/01/06 04:05:33;;;;;;;35.17;14.93;;;7.90;99.90;;;;;;5103476;27;20398;-73
2023/01/06 04:07:59;;;;;;;31.35;15.25;;;8.00;99.90;;;;;;5108934;28;20031;-73
2023/01/06 04:10:24;;;;;;;45.60;18.13;;;8.00;99.90;;;;;;5107321;28;20024;-73
2023/01/06 04:12:50;;;;;;;67.22;23.05;;;8.00;99.90;;;;;;5089981;28;20034;-73
2023/01/06 04:15:19;;;;;;;47.00;18.23;;;8.10;99.90;;;;;;5087211;28;20442;-73
2023/01/06 04:17:46;;;;;;;43.08;19.63;;;8.20;99.90;;;;;;5089712;28;20538;-74
2023/01/06 04:20:16;;;;;;;37.72;18.38;;;8.20;99.90;;;;;;5111557;27;20054;-73
2023/01/06 04:22:42;;;;;;;65.72;24.55;;;8.30;99.90;;;;;;5107419;28;20470;-73
2023/01/06 04:25:08;;;;;;;56.00;21.90;;;8.30;99.90;;;;;;5109171;27;20031;-74
2023/01/06 04:27:34;;;;;;;51.92;22.35;;;8.40;99.90;;;;;;5088605;28;20034;-74
2023/01/06 04:30:00;;;;;;;79.75;25.48;;;8.50;99.90;;;;;;5088805;28;20106;-73
2023/01/06 04:32:26;;;;;;;54.10;22.00;;;8.50;99.90;;;;;;5087683;28;20039;-73
2023/01/06 04:34:51;;;;;;;45.67;21.27;;;8.50;99.90;;;;;;5071395;28;20034;-73
2023/01/06 04:37:17;;;;;;;57.53;22.42;;;8.60;99.90;;;;;;5087889;28;20070;-73
2023/01/06 04:39:43;;;;;;;53.20;22.40;;;8.60;99.90;;;;;;5086767;28;20031;-73
2023/01/06 04:42:10;;;;;;;56.55;23.13;;;8.60;99.90;;;;;;5108272;28;20094;-74
2023/01/06 04:44:36;;;;;;;96.70;28.58;;;8.60;99.90;;;;;;5083904;28;20089;-74
2023/01/06 04:47:02;;;;;;;62.83;23.30;;;8.70;99.90;;;;;;5105239;28;20528;-73
2023/01/06 04:49:27;;;;;;;57.95;23.83;;;8.70;99.90;;;;;;5067396;28;20057;-74
2023/01/06 04:51:53;;;;;;;70.07;25.73;;;8.70;99.90;;;;;;5089554;28;20039;-72
2023/01/06 04:54:19;;;;;;;62.47;24.20;;;8.80;99.90;;;;;;5088004;28;20032;-75
2023/01/06 04:56:45;;;;;;;64.35;26.55;;;8.80;99.90;;;;;;5073057;28;20031;-74
2023/01/06 04:59:10;;;;;;;58.03;24.30;;;8.80;99.90;;;;;;5085487;28;20035;-75
2023/01/06 05:01:36;;;;;;;65.55;25.35;;;8.80;99.90;;;;;;5107175;28;20398;-76
2023/01/06 05:04:06;;;;;;;66.85;25.13;;;8.80;99.90;;;;;;5084892;28;20050;-75
2023/01/06 05:06:32;;;;;;;59.35;24.42;;;8.80;99.90;;;;;;5087003;28;20032;-76
2023/01/06 05:08:58;;;;;;;60.03;24.83;;;8.80;99.90;;;;;;5086934;28;20024;-76
2023/01/06 05:11:25;;;;;;;62.08;23.88;;;8.90;99.90;;;;;;5087099;28;20024;-76
2023/01/06 05:13:52;;;;;;;65.95;23.20;;;8.90;99.90;;;;;;5102843;28;20503;-75
2023/01/06 05:16:22;;;;;;;47.22;22.05;;;8.90;99.90;;;;;;5104492;28;20035;-75
2023/01/06 05:18:48;;;;;;;45.95;20.25;;;8.90;99.90;;;;;;5085476;28;20131;-76
2023/01/06 05:21:14;;;;;;;52.10;21.90;;;8.90;99.90;;;;;;5086180;28;20110;-75
2023/01/06 05:23:40;;;;;;;48.35;22.20;;;8.90;99.90;;;;;;5087104;28;20030;-75
2023/01/06 05:26:06;;;;;;;53.72;21.00;;;8.90;99.90;;;;;;5072104;28;20038;-76
2023/01/06 05:28:32;;;;;;;50.35;22.15;;;8.90;99.90;;;;;;5100473;28;20532;-76
2023/01/06 05:30:59;;;;;;;56.17;22.52;;;9.00;99.90;;;;;;5081512;28;20032;-76
2023/01/06 05:33:25;;;;;;;62.83;24.02;;;8.90;99.90;;;;;;5092292;28;20024;-76
2023/01/06 05:36:20;;;;;;;47.63;21.55;;;9.00;99.90;;;;;;5094035;28;20031;-77
2023/01/06 05:38:51;;;;;;;45.53;19.52;;;9.00;99.90;;;;;;5092460;28;20020;-76
2023/01/06 05:41:17;;;;;;;54.10;22.70;;;9.00;99.90;;;;;;5088090;28;20023;-77
2023/01/06 05:43:43;;;;;;;50.00;22.10;;;9.00;99.90;;;;;;5074935;28;20421;-76
2023/01/06 05:46:10;;;;;;;52.50;22.63;;;9.00;99.90;;;;;;5091116;28;20027;-76
2023/01/06 05:48:37;;;;;;;48.33;22.05;;;9.00;99.90;;;;;;5089887;28;20039;-76
2023/01/06 05:51:05;;;;;;;41.45;20.65;;;9.00;99.90;;;;;;5090869;28;20023;-76
2023/01/06 05:53:33;;;;;;;37.85;19.15;;;9.00;99.90;;;;;;5092010;28;20114;-74
2023/01/06 05:56:03;;;;;;;48.20;20.50;;;9.00;99.90;;;;;;5111766;28;20022;-76
2023/01/06 05:58:32;;;;;;;55.58;20.58;;;9.00;99.90;;;;;;5107877;28;20107;-74
2023/01/06 06:01:01;;;;;;;51.20;21.48;;;9.00;99.90;;;;;;5112832;28;20036;-76
2023/01/06 06:03:27;;;;;;;40.25;19.58;;;9.00;99.90;;;;;;5116155;28;20054;-76
2023/01/06 06:05:53;;;;;;;59.40;21.80;;;9.00;99.90;;;;;;5108455;27;20514;-76
2023/01/06 06:08:19;;;;;;;46.88;21.15;;;9.00;99.90;;;;;;5091468;28;20035;-76
2023/01/06 06:10:44;;;;;;;54.22;22.63;;;9.00;99.90;;;;;;5073015;28;20084;-74
2023/01/06 06:13:10;;;;;;;43.35;22.30;;;9.10;99.90;;;;;;5091812;28;20074;-74
2023/01/06 06:15:36;;;;;;;45.08;21.17;;;9.00;99.90;;;;;;5091628;28;20024;-74
2023/01/06 06:18:02;;;;;;;41.55;21.58;;;9.00;99.90;;;;;;5090496;28;20703;-74
2023/01/06 06:20:28;;;;;;;57.22;24.35;;;9.00;99.90;;;;;;5091133;28;20077;-74
2023/01/06 06:22:54;;;;;;;63.03;23.88;;;9.00;99.90;;;;;;5091637;28;20038;-74
2023/01/06 06:25:20;;;;;;;59.47;22.70;;;9.00;99.90;;;;;;5089237;28;20609;-74
2023/01/06 06:27:46;;;;;;;55.28;25.00;;;9.00;99.90;;;;;;5109161;28;20036;-74
2023/01/06 06:30:13;;;;;;;49.83;23.70;;;9.10;99.90;;;;;;5089275;28;20035;-74
2023/01/06 06:32:39;;;;;;;47.45;23.48;;;9.10;99.90;;;;;;5107754;27;20056;-74
2023/01/06 06:35:05;;;;;;;47.85;22.38;;;9.10;99.90;;;;;;5109385;28;20043;-75
2023/01/06 06:37:30;;;;;;;49.97;23.75;;;9.10;99.90;;;;;;5111416;28;20028;-73
2023/01/06 06:39:56;;;;;;;64.68;27.63;;;9.10;99.90;;;;;;5103738;28;20036;-73
2023/01/06 06:42:22;;;;;;;49.25;22.95;;;9.10;99.90;;;;;;5114382;27;20061;-73
2023/01/06 06:44:47;;;;;;;46.13;23.05;;;9.10;99.90;;;;;;5094782;28;20032;-74
2023/01/06 06:47:14;;;;;;;48.67;22.67;;;9.10;99.90;;;;;;5109463;28;20043;-73
2023/01/06 06:49:40;;;;;;;51.30;25.77;;;9.10;99.90;;;;;;5109935;28;20038;-74
2023/01/06 06:52:06;;;;;;;55.35;24.33;;;9.10;99.90;;;;;;5090154;28;20023;-73
2023/01/06 06:54:31;;;;;;;47.58;24.30;;;9.10;99.90;;;;;;5090552;28;20027;-74
2023/01/06 06:56:58;;;;;;;43.47;23.70;;;9.10;99.90;;;;;;5105764;28;20067;-73
2023/01/06 06:59:24;;;;;;;44.00;22.02;;;9.10;99.90;;;;;;5075117;28;20112;-74
2023/01/06 07:01:50;;;;;;;53.00;23.83;;;9.10;99.90;;;;;;5107452;28;20027;-74
2023/01/06 07:04:15;;;;;;;41.80;21.08;;;9.10;99.90;;;;;;5091144;28;20118;-74
2023/01/06 07:06:41;;;;;;;43.53;22.02;;;9.10;99.90;;;;;;5086769;28;20063;-74
2023/01/06 07:09:07;;;;;;;51.30;23.42;;;9.10;99.90;;;;;;5082865;28;20419;-73
2023/01/06 07:11:32;;;;;;;54.08;23.52;;;9.10;99.90;;;;;;5107772;28;20044;-73
2023/01/06 07:13:58;;;;;;;55.67;25.35;;;9.10;99.90;;;;;;5071441;28;20444;-74
2023/01/06 07:16:25;;;;;;;42.00;21.55;;;9.10;99.90;;;;;;5110679;28;20048;-73
2023/01/06 07:18:52;;;;;;;46.80;22.65;;;9.10;99.90;;;;;;5090022;28;20050;-73
2023/01/06 07:21:17;;;;;;;41.05;20.52;;;9.10;99.90;;;;;;5089359;28;20057;-74
2023/01/06 07:23:43;;;;;;;41.00;19.52;;;9.10;99.90;;;;;;5089663;28;20040;-73
2023/01/06 07:26:10;;;;;;;38.60;19.92;;;9.10;99.90;;;;;;5090180;28;20042;-74
2023/01/06 07:28:36;;;;;;;37.30;20.13;;;9.10;99.90;;;;;;5107651;28;20023;-73
2023/01/06 07:31:04;;;;;;;40.25;19.83;;;9.10;99.90;;;;;;5087676;28;20046;-73
2023/01/06 07:33:30;;;;;;;42.45;20.90;;;9.10;99.90;;;;;;5070324;28;20081;-73
2023/01/06 07:35:56;;;;;;;35.25;19.52;;;9.10;99.90;;;;;;5090340;28;20016;-73
2023/01/06 07:38:23;;;;;;;35.75;18.70;;;9.20;99.90;;;;;;5068297;28;20533;-74
2023/01/06 07:40:50;;;;;;;34.67;19.00;;;9.10;99.90;;;;;;5108180;28;20103;-74
2023/01/06 07:43:16;;;;;;;38.15;19.85;;;9.20;99.90;;;;;;5102885;28;20034;-73
2023/01/06 07:45:42;;;;;;;35.42;18.02;;;9.10;99.90;;;;;;5104050;28;20083;-74
2023/01/06 07:48:08;;;;;;;36.92;19.13;;;9.10;99.90;;;;;;5118299;28;20103;-74
2023/01/06 07:50:34;;;;;;;35.85;18.38;;;9.10;99.90;;;;;;5071132;28;20076;-75
2023/01/06 07:53:01;;;;;;;32.05;18.33;;;9.10;99.90;;;;;;5090187;28;20031;-75
2023/01/06 07:55:27;;;;;;;35.92;18.67;;;9.20;99.90;;;;;;5090090;28;20028;-76
2023/01/06 07:57:53;;;;;;;32.92;17.55;;;9.20;99.90;;;;;;5090724;28;20024;-76
2023/01/06 08:00:19;;;;;;;36.00;19.27;;;9.20;99.90;;;;;;5103981;28;20578;-75
2023/01/06 08:02:45;;;;;;;28.55;17.67;;;9.20;99.90;;;;;;5105137;28;20019;-76
2023/01/06 08:05:11;;;;;;;31.15;17.45;;;9.20;99.90;;;;;;5087693;28;20061;-76
2023/01/06 08:07:37;;;;;;;29.85;17.13;;;9.20;99.90;;;;;;5086365;28;20129;-75
2023/01/06 08:10:03;;;;;;;29.40;17.38;;;9.20;99.90;;;;;;5090362;28;20110;-76
2023/01/06 08:12:28;;;;;;;28.52;16.85;;;9.20;99.90;;;;;;5087191;28;20028;-75
2023/01/06 08:14:54;;;;;;;38.13;18.70;;;9.20;99.90;;;;;;5090546;28;20015;-75
2023/01/06 08:17:20;;;;;;;27.58;16.50;;;9.20;99.90;;;;;;5087329;28;20570;-75
2023/01/06 08:19:46;;;;;;;27.90;16.23;;;9.20;99.90;;;;;;5069434;28;20024;-75
2023/01/06 08:22:11;;;;;;;26.05;15.30;;;9.20;99.90;;;;;;5104225;28;20034;-76
2023/01/06 08:24:37;;;;;;;33.25;16.75;;;9.20;99.90;;;;;;5110110;28;20034;-75
2023/01/06 08:27:03;;;;;;;26.75;15.60;;;9.20;99.90;;;;;;5092031;28;20027;-76
2023/01/06 08:29:29;;;;;;;25.35;15.02;;;9.20;99.90;;;;;;5084348;28;20100;-76
2023/01/06 08:31:55;;;;;;;21.20;12.88;;;9.20;99.90;;;;;;5089681;28;20024;-76
2023/01/06 08:34:20;;;;;;;21.13;13.40;;;9.30;99.90;;;;;;5106587;28;20023;-77
2023/01/06 08:36:46;;;;;;;23.95;13.90;;;9.30;99.90;;;;;;5102781;28;20024;-76
2023/01/06 08:39:13;;;;;;;20.95;12.93;;;9.30;99.90;;;;;;5102472;28;20028;-76
2023/01/06 08:41:42;;;;;;;20.52;11.85;;;9.30;99.90;;;;;;5083914;28;20802;-76
2023/01/06 08:44:08;;;;;;;23.25;13.45;;;9.30;99.90;;;;;;5083163;28;20047;-76
2023/01/06 08:46:34;;;;;;;21.48;13.00;;;9.30;99.90;;;;;;5066231;28;20031;-76
2023/01/06 08:49:00;;;;;;;24.02;13.18;;;9.30;99.90;;;;;;5102091;28;20383;-76
2023/01/06 08:51:27;;;;;;;17.88;12.68;;;9.30;99.90;;;;;;5099383;28;20032;-75
2023/01/06 08:53:53;;;;;;;21.27;13.18;;;9.30;99.90;;;;;;5099682;28;20046;-77
2023/01/06 08:56:28;;;;;;;18.13;12.10;;;9.20;99.90;;;;;;5084406;28;20028;-75
2023/01/06 08:59:00;;;;;;;22.38;13.48;;;9.30;99.90;;;;;;5102612;28;20019;-77
2023/01/06 09:01:29;;;;;;;18.75;12.52;;;9.20;99.90;;;;;;5097216;28;20035;-75
2023/01/06 09:03:57;;;;;;;20.15;12.15;;;9.20;99.90;;;;;;5105862;28;20032;-77
2023/01/06 09:06:23;;;;;;;19.73;11.85;;;9.20;99.90;;;;;;5101245;28;20491;-75
2023/01/06 09:08:49;;;;;;;18.75;11.52;;;9.20;99.90;;;;;;5085051;28;20028;-74
2023/01/06 09:11:16;;;;;;;20.27;12.50;;;9.30;99.90;;;;;;5105339;28;20031;-76
2023/01/06 09:13:42;;;;;;;15.75;11.48;;;9.20;99.90;;;;;;5085206;28;20032;-76
2023/01/06 09:16:09;;;;;;;17.10;11.57;;;9.20;99.90;;;;;;5099333;28;20038;-75
2023/01/06 09:18:39;;;;;;;17.42;11.15;;;9.20;99.90;;;;;;5097169;28;20024;-77
2023/01/06 09:21:05;;;;;;;20.50;11.57;;;9.20;99.90;;;;;;5066760;28;20028;-76
2023/01/06 09:23:31;;;;;;;13.70;9.77;;;9.20;99.90;;;;;;5088985;28;20487;-75
2023/01/06 09:25:58;;;;;;;16.33;10.93;;;9.20;99.90;;;;;;5089540;28;20027;-77
2023/01/06 09:28:25;;;;;;;18.15;10.93;;;9.20;99.90;;;;;;5087468;28;20032;-74
2023/01/06 09:30:51;;;;;;;16.83;10.13;;;9.30;99.90;;;;;;5090507;28;20028;-76
2023/01/06 09:33:17;;;;;;;19.27;10.48;;;9.30;99.90;;;;;;5088918;28;20028;-75
2023/01/06 09:35:44;;;;;;;13.30;9.70;;;9.30;99.90;;;;;;5105582;28;20101;-75
2023/01/06 09:38:11;;;;;;;18.75;10.15;;;9.30;99.90;;;;;;5105420;28;20096;-76
2023/01/06 09:41:07;;;;;;;17.67;9.52;;;9.30;99.90;;;;;;5083948;28;20031;-76
2023/01/06 09:43:57;;;;;;;15.38;9.00;;;9.30;99.90;;;;;;5106593;28;20024;-77
2023/01/06 09:46:30;;;;;;;16.02;9.30;;;9.30;99.90;;;;;;5084853;28;20019;-77
2023/01/06 09:48:56;;;;;;;16.05;9.60;;;9.30;99.90;;;;;;5084883;28;20088;-77
2023/01/06 09:51:27;;;;;;;17.23;8.88;;;9.30;99.90;;;;;;5100980;28;21609;-77
2023/01/06 09:54:01;;;;;;;14.23;8.32;;;9.50;99.90;;;;;;5106647;28;20507;-77
2023/01/06 09:56:28;;;;;;;12.43;7.60;;;9.40;99.90;;;;;;5072918;28;20658;-75
2023/01/06 09:59:18;;;;;;;12.20;7.88;;;9.40;99.90;;;;;;5104445;28;20024;-75
2023/01/06 10:01:47;;;;;;;10.00;7.70;;;9.30;99.90;;;;;;5104702;28;20049;-75
2023/01/06 10:04:21;;;;;;;10.88;7.05;;;9.30;99.90;;;;;;5102116;28;20277;-76
2023/01/06 10:07:16;;;;;;;10.40;7.00;;;9.30;99.90;;;;;;5080810;28;20034;-77
2023/01/06 10:09:48;;;;;;;8.40;6.22;;;9.30;99.90;;;;;;5086811;28;20048;-76
2023/01/06 10:12:37;;;;;;;10.45;6.65;;;9.30;99.90;;;;;;5079690;28;20672;-75
2023/01/06 10:15:19;;;;;;;8.85;6.15;;;9.30;99.90;;;;;;5104137;28;20038;-76
2023/01/06 10:17:51;;;;;;;10.80;6.90;;;9.40;99.90;;;;;;5081792;28;20110;-75
2023/01/06 10:20:59;;;;;;;11.07;7.57;;;9.30;99.90;;;;;;5090694;28;20023;-76
2023/01/06 10:23:56;;;;;;;9.20;6.65;;;9.30;99.90;;;;;;5088581;28;20043;-76
2023/01/06 10:26:29;;;;;;;9.70;7.03;;;9.30;99.90;;;;;;5085131;28;20071;-75
2023/01/06 10:29:05;;;;;;;11.10;6.82;;;9.40;99.90;;;;;;5092859;28;20532;-75
2023/01/06 10:31:33;;;;;;;9.35;7.38;;;9.40;99.90;;;;;;5085127;28;20062;-75
2023/01/06 10:34:01;;;;;;;13.25;7.60;;;9.40;99.90;;;;;;5083289;28;20028;-75
2023/01/06 10:36:41;;;;;;;9.13;7.40;;;9.40;99.90;;;;;;5105239;28;20032;-76
2023/01/06 10:39:15;;;;;;;9.90;7.20;;;9.50;99.90;;;;;;5089870;28;20067;-76
2023/01/06 10:44:47;;;;;;;9.15;6.70;;;9.50;99.90;;;;;;5088406;28;20059;-76
2023/01/06 10:47:27;;;;;;;10.00;7.32;;;9.50;99.90;;;;;;5084034;28;20513;-76
2023/01/06 10:49:54;;;;;;;14.88;6.85;;;9.50;99.90;;;;;;5088122;28;20041;-76
2023/01/06 10:52:21;;;;;;;10.48;6.32;;;9.50;99.90;;;;;;5092821;28;20024;-76
2023/01/06 10:54:50;;;;;;;9.63;6.70;;;9.50;99.90;;;;;;5090340;28;20043;-76
2023/01/06 10:57:28;;;;;;;9.93;6.80;;;9.50;99.90;;;;;;5082651;28;20356;-75
2023/01/06 11:00:22;;;;;;;9.55;6.82;;;9.50;99.90;;;;;;5084800;28;20050;-76
2023/01/06 11:02:54;;;;;;;9.85;6.63;;;9.50;99.90;;;;;;5080958;28;20038;-76
2023/01/06 11:05:25;;;;;;;7.43;6.28;;;9.60;99.90;;;;;;5082588;28;20034;-76
2023/01/06 11:07:56;;;;;;;7.78;6.40;;;9.60;99.90;;;;;;5089121;28;20036;-76
2023/01/06 11:10:36;;;;;;;9.67;6.30;;;9.60;99.90;;;;;;5101466;28;20043;-76
2023/01/06 11:13:03;;;;;;;6.60;4.40;;;9.50;99.90;;;;;;5085855;28;20288;-77
2023/01/06 11:15:39;;;;;;;5.45;3.72;;;9.50;99.90;;;;;;5096814;28;20033;-78
2023/01/06 11:18:19;;;;;;;8.52;3.72;;;9.50;99.90;;;;;;5074373;28;20019;-76
2023/01/06 11:20:59;;;;;;;7.30;3.85;;;9.50;99.90;;;;;;5084070;28;20023;-76
2023/01/06 11:23:27;;;;;;;3.85;2.67;;;9.50;99.90;;;;;;5107865;28;20019;-76
2023/01/06 11:26:13;;;;;;;3.60;2.60;;;9.50;99.90;;;;;;5099862;27;20267;-76
2023/01/06 11:28:41;;;;;;;5.15;2.00;;;9.50;99.90;;;;;;5108824;27;20032;-75
2023/01/06 11:31:13;;;;;;;3.78;2.08;;;9.40;99.90;;;;;;5108940;28;20020;-75
2023/01/06 11:33:47;;;;;;;4.45;1.70;;;9.50;99.90;;;;;;5110191;28;20019;-75
2023/01/06 11:36:15;;;;;;;2.17;1.23;;;9.40;99.90;;;;;;5087395;28;20023;-76
2023/01/06 11:39:30;;;;;;;4.63;1.45;;;9.50;99.90;;;;;;5082284;28;20039;-76
2023/01/06 11:42:02;;;;;;;3.65;1.52;;;9.60;99.90;;;;;;5008285;28;20045;-77
2023/01/06 11:44:33;;;;;;;4.13;1.23;;;9.50;99.90;;;;;;5007563;28;20038;-76
2023/01/06 11:47:06;;;;;;;5.20;1.67;;;9.50;99.90;;;;;;5001329;28;20050;-77
2023/01/06 11:49:42;;;;;;;3.80;0.98;;;9.50;99.90;;;;;;4984723;28;20430;-77
2023/01/06 11:52:30;;;;;;;2.90;1.33;;;9.50;99.90;;;;;;5002957;28;20040;-78
2023/01/06 11:55:00;;;;;;;3.08;0.90;;;9.50;99.90;;;;;;5005608;28;20030;-77
2023/01/06 11:57:53;;;;;;;5.88;1.00;;;9.50;99.90;;;;;;4991712;28;20037;-76
2023/01/06 12:00:30;;;;;;;7.93;1.70;;;9.40;99.90;;;;;;4988726;28;20038;-77
2023/01/06 12:03:21;;;;;;;3.63;1.05;;;9.30;99.90;;;;;;4986812;28;20057;-81
2023/01/06 12:05:51;;;;;;;5.60;1.38;;;9.30;99.90;;;;;;4989728;28;20034;-79
2023/01/06 12:08:48;;;;;;;8.60;1.40;;;9.20;99.90;;;;;;5003254;28;20228;-78
2023/01/06 12:11:13;;;;;;;7.28;1.40;;;9.20;99.90;;;;;;4981491;28;20041;-76
2023/01/06 12:13:39;;;;;;;4.93;1.60;;;9.20;99.90;;;;;;5068838;28;20534;-77
2023/01/06 12:16:37;;;;;;;3.97;1.00;;;9.20;99.90;;;;;;5089633;28;20020;-78
2023/01/06 12:19:13;;;;;;;9.18;1.38;;;9.20;99.90;;;;;;5074495;28;20085;-76
2023/01/06 12:21:40;;;;;;;5.47;1.30;;;9.20;99.90;;;;;;5086774;28;20590;-78
2023/01/06 12:24:11;;;;;;;7.10;1.20;;;9.10;99.90;;;;;;5086301;28;20092;-75
2023/01/06 12:26:38;;;;;;;4.97;1.23;;;9.10;99.90;;;;;;5087942;28;20668;-76
2023/01/06 12:29:06;;;;;;;6.00;1.10;;;9.10;99.90;;;;;;5088414;28;20035;-76
2023/01/06 12:31:49;;;;;;;6.55;1.20;;;9.10;99.90;;;;;;5085839;28;20028;-76
2023/01/06 12:34:23;;;;;;;6.38;1.80;;;9.30;99.90;;;;;;5084284;28;20032;-78
2023/01/06 12:37:11;;;;;;;6.25;1.35;;;9.40;99.90;;;;;;5064496;28;20032;-79
2023/01/06 12:40:03;;;;;;;6.20;1.35;;;9.40;99.90;;;;;;5085433;28;20024;-77
2023/01/06 12:42:45;;;;;;;5.47;1.00;;;9.50;99.90;;;;;;5085630;28;20031;-78
2023/01/06 12:45:23;;;;;;;7.05;1.58;;;9.60;99.90;;;;;;5089884;28;20122;-77
2023/01/06 12:48:00;;;;;;;14.80;1.30;;;9.60;99.90;;;;;;5083595;28;22081;-74
2023/01/06 12:51:15;;;;;;;6.00;1.23;;;9.60;99.90;;;;;;5085346;28;20036;-75
2023/01/06 12:53:46;;;;;;;5.85;1.13;;;9.60;99.90;;;;;;5000592;28;20044;-75
2023/01/06 12:56:24;;;;;;;5.72;1.13;;;9.60;99.90;;;;;;5097502;27;20047;-75
2023/01/06 12:59:02;;;;;;;4.28;1.30;;;9.50;99.90;;;;;;5088756;28;20110;-75
2023/01/06 13:02:19;;;;;;;6.28;1.77;;;9.50;99.90;;;;;;5093239;28;20529;-75
2023/01/06 13:05:05;;;;;;;8.77;1.70;;;9.50;99.90;;;;;;5000516;28;20065;-75
2023/01/06 13:08:01;;;;;;;2.78;1.15;;;9.40;99.90;;;;;;4968851;28;20120;-74
2023/01/06 13:10:43;;;;;;;8.43;1.63;;;9.30;99.90;;;;;;5062902;28;20039;-76
2023/01/06 13:13:11;;;;;;;;;;;9.20;99.90;;;;;;5094941;28;20039;-74